createdAt,value
2017-07-22T00:00:19.424Z,19.05
2017-07-22T00:01:19.522Z,19.05
2017-07-22T00:02:19.420Z,19.09
2017-07-22T00:03:19.421Z,19
2017-07-22T00:04:19.418Z,18.98
2017-07-22T00:05:18.808Z,19.01
2017-07-22T00:06:19.418Z,18.98
2017-07-22T00:07:19.566Z,19.04
2017-07-22T00:08:19.416Z,19.05
2017-07-22T00:09:19.412Z,19.01
2017-07-22T00:10:19.566Z,18.98
2017-07-22T00:11:19.410Z,18.97
2017-07-22T00:12:19.410Z,19.08
2017-07-22T00:13:19.431Z,19.07
2017-07-22T00:14:19.405Z,19.05
2017-07-22T00:15:19.507Z,19
2017-07-22T00:16:19.100Z,19.01
2017-07-22T00:17:19.103Z,18.97
2017-07-22T00:18:19.099Z,19.04
2017-07-22T00:19:19.402Z,19.08
2017-07-22T00:20:19.400Z,19.08
2017-07-22T00:21:19.410Z,19.01
2017-07-22T00:22:19.643Z,19
2017-07-22T00:23:19.090Z,19.01
2017-07-22T00:24:19.398Z,19
2017-07-22T00:25:19.397Z,19.04
2017-07-22T00:26:19.399Z,19.01
2017-07-22T00:27:19.389Z,19
2017-07-22T00:28:19.399Z,19.11
2017-07-22T00:29:19.402Z,19.15
2017-07-22T00:30:19.399Z,19.15
2017-07-22T00:31:19.079Z,19.23
2017-07-22T00:32:19.081Z,19.24
2017-07-22T00:33:19.382Z,19.19
2017-07-22T00:34:19.506Z,19.2
2017-07-22T00:35:19.175Z,19.17
2017-07-22T00:36:19.078Z,19.26
2017-07-22T00:37:19.374Z,19.22
2017-07-22T00:38:19.069Z,19.24
2017-07-22T00:39:19.374Z,19.29
2017-07-22T00:40:19.676Z,19.19
2017-07-22T00:41:19.375Z,19.29
2017-07-22T00:42:19.066Z,19.24
2017-07-22T00:43:19.370Z,19.23
2017-07-22T00:44:19.180Z,19.16
2017-07-22T00:45:19.157Z,19.16
2017-07-22T00:46:19.364Z,19.23
2017-07-22T00:47:19.365Z,19.19
2017-07-22T00:48:19.057Z,19.17
2017-07-22T00:49:19.360Z,19.17
2017-07-22T00:50:19.358Z,19.2
2017-07-22T00:51:19.353Z,19.16
2017-07-22T00:52:19.360Z,19.23
2017-07-22T00:53:19.355Z,19.19
2017-07-22T00:54:19.353Z,19.15
2017-07-22T00:55:19.049Z,19.16
2017-07-22T00:56:19.048Z,19.16
2017-07-22T00:57:19.350Z,19.16
2017-07-22T00:58:19.144Z,19.17
2017-07-22T00:59:19.040Z,19.16
2017-07-22T01:00:19.042Z,19.19
2017-07-22T01:01:19.343Z,19.16
2017-07-22T01:02:19.493Z,19.17
2017-07-22T01:03:19.040Z,19.15
2017-07-22T01:04:19.342Z,19.17
2017-07-22T01:05:19.336Z,19.11
2017-07-22T01:06:19.335Z,19.11
2017-07-22T01:07:19.134Z,19.01
2017-07-22T01:08:19.029Z,19
2017-07-22T01:09:19.358Z,19.04
2017-07-22T01:10:19.030Z,19.05
2017-07-22T01:11:19.428Z,18.98
2017-07-22T01:12:19.024Z,19.05
2017-07-22T01:13:19.328Z,19.05
2017-07-22T01:14:19.018Z,18.92
2017-07-22T01:15:19.018Z,18.92
2017-07-22T01:16:19.014Z,18.96
2017-07-22T01:17:19.017Z,18.86
2017-07-22T01:18:19.315Z,18.97
2017-07-22T01:19:19.012Z,19.01
2017-07-22T01:20:19.010Z,18.98
2017-07-22T01:21:19.114Z,19.04
2017-07-22T01:22:19.420Z,19
2017-07-22T01:23:19.313Z,19.07
2017-07-22T01:24:19.321Z,18.96
2017-07-22T01:25:19.311Z,18.97
2017-07-22T01:26:19.312Z,19.12
2017-07-22T01:27:19.002Z,19.08
2017-07-22T01:28:19.005Z,19.08
2017-07-22T01:29:19.000Z,19.15
2017-07-22T01:30:19.302Z,19.15
2017-07-22T01:31:18.997Z,19.12
2017-07-22T01:32:19.297Z,19.15
2017-07-22T01:33:18.996Z,19.11
2017-07-22T01:34:18.995Z,19.15
2017-07-22T01:35:18.990Z,19.09
2017-07-22T01:36:19.293Z,19.16
2017-07-22T01:37:19.293Z,19.12
2017-07-22T01:38:18.991Z,19.15
2017-07-22T01:39:19.133Z,19.17
2017-07-22T01:40:18.983Z,19.11
2017-07-22T01:41:18.992Z,19.11
2017-07-22T01:42:18.981Z,19.15
2017-07-22T01:43:18.981Z,19.12
2017-07-22T01:44:18.979Z,19.2
2017-07-22T01:45:18.974Z,19.12
2017-07-22T01:46:19.001Z,19.2
2017-07-22T01:47:18.972Z,19.19
2017-07-22T01:48:18.973Z,19.17
2017-07-22T01:49:18.970Z,19.26
2017-07-22T01:50:18.969Z,19.24
2017-07-22T01:51:18.967Z,19.15
2017-07-22T01:52:18.966Z,19.19
2017-07-22T01:53:19.272Z,19.19
2017-07-22T01:54:18.965Z,19.27
2017-07-22T01:55:19.269Z,19.23
2017-07-22T01:56:19.412Z,19.23
2017-07-22T01:57:19.267Z,19.16
2017-07-22T01:58:19.057Z,19.27
2017-07-22T01:59:19.260Z,19.17
2017-07-22T02:00:19.257Z,19.12
2017-07-22T02:01:19.265Z,19.09
2017-07-22T02:02:19.252Z,19.01
2017-07-22T02:03:19.255Z,19.04
2017-07-22T02:04:19.250Z,19.01
2017-07-22T02:05:19.255Z,19.04
2017-07-22T02:06:19.250Z,19
2017-07-22T02:07:19.247Z,19.04
2017-07-22T02:08:19.249Z,19.04
2017-07-22T02:09:18.941Z,19
2017-07-22T02:10:19.342Z,19.01
2017-07-22T02:11:19.242Z,18.92
2017-07-22T02:12:19.241Z,18.96
2017-07-22T02:13:19.238Z,18.89
2017-07-22T02:14:19.336Z,18.98
2017-07-22T02:15:19.242Z,18.94
2017-07-22T02:16:19.230Z,18.92
2017-07-22T02:17:19.235Z,18.89
2017-07-22T02:18:19.234Z,18.92
2017-07-22T02:19:19.233Z,18.94
2017-07-22T02:20:19.228Z,18.98
2017-07-22T02:21:19.227Z,18.96
2017-07-22T02:22:19.227Z,19.01
2017-07-22T02:23:19.223Z,18.97
2017-07-22T02:24:19.224Z,19.04
2017-07-22T02:25:19.223Z,19.07
2017-07-22T02:26:19.221Z,19.08
2017-07-22T02:27:19.222Z,19.07
2017-07-22T02:28:19.212Z,18.98
2017-07-22T02:29:19.213Z,19.07
2017-07-22T02:30:18.909Z,19.01
2017-07-22T02:31:18.905Z,19
2017-07-22T02:32:19.212Z,19.01
2017-07-22T02:33:19.205Z,19.08
2017-07-22T02:34:19.309Z,19
2017-07-22T02:35:19.211Z,19.04
2017-07-22T02:36:19.305Z,18.96
2017-07-22T02:37:18.898Z,18.96
2017-07-22T02:38:19.204Z,18.89
2017-07-22T02:39:19.218Z,18.94
2017-07-22T02:40:19.200Z,18.94
2017-07-22T02:41:19.205Z,18.96
2017-07-22T02:42:19.195Z,18.92
2017-07-22T02:43:19.193Z,18.97
2017-07-22T02:44:18.888Z,18.97
2017-07-22T02:45:18.886Z,19.01
2017-07-22T02:46:18.890Z,19.01
2017-07-22T02:47:18.981Z,19
2017-07-22T02:48:18.881Z,19
2017-07-22T02:49:19.181Z,19
2017-07-22T02:50:18.887Z,19.05
2017-07-22T02:51:18.873Z,18.98
2017-07-22T02:52:18.972Z,19.04
2017-07-22T02:53:18.884Z,18.92
2017-07-22T02:54:18.869Z,18.92
2017-07-22T02:55:18.872Z,18.91
2017-07-22T02:56:18.867Z,18.91
2017-07-22T02:57:18.968Z,18.92
2017-07-22T02:58:18.864Z,18.89
2017-07-22T02:59:18.864Z,18.92
2017-07-22T03:00:18.862Z,18.89
2017-07-22T03:01:19.268Z,18.94
2017-07-22T03:02:18.853Z,19.05
2017-07-22T03:03:19.169Z,18.96
2017-07-22T03:04:18.853Z,18.89
2017-07-22T03:05:19.158Z,18.98
2017-07-22T03:06:19.157Z,19.04
2017-07-22T03:07:19.161Z,19
2017-07-22T03:08:19.152Z,19.05
2017-07-22T03:09:19.152Z,19.04
2017-07-22T03:10:19.255Z,18.98
2017-07-22T03:11:18.992Z,19.05
2017-07-22T03:12:18.848Z,19.04
2017-07-22T03:13:19.245Z,19.04
2017-07-22T03:14:19.149Z,19.04
2017-07-22T03:15:19.138Z,18.94
2017-07-22T03:16:19.147Z,18.96
2017-07-22T03:17:18.836Z,18.98
2017-07-22T03:18:19.247Z,18.96
2017-07-22T03:19:19.137Z,18.88
2017-07-22T03:20:19.136Z,18.94
2017-07-22T03:21:19.136Z,18.94
2017-07-22T03:22:19.131Z,18.91
2017-07-22T03:23:19.131Z,19
2017-07-22T03:24:19.129Z,18.91
2017-07-22T03:25:19.128Z,18.91
2017-07-22T03:26:19.228Z,18.91
2017-07-22T03:27:19.120Z,18.85
2017-07-22T03:28:18.818Z,18.92
2017-07-22T03:29:19.125Z,18.94
2017-07-22T03:30:18.825Z,18.88
2017-07-22T03:31:19.124Z,18.86
2017-07-22T03:32:18.809Z,18.86
2017-07-22T03:33:18.810Z,18.83
2017-07-22T03:34:19.111Z,18.85
2017-07-22T03:35:19.112Z,18.85
2017-07-22T03:36:19.212Z,18.79
2017-07-22T03:37:19.110Z,18.83
2017-07-22T03:38:19.103Z,18.83
2017-07-22T03:39:19.105Z,18.79
2017-07-22T03:40:19.119Z,18.74
2017-07-22T03:41:19.102Z,18.79
2017-07-22T03:42:19.099Z,18.85
2017-07-22T03:43:19.098Z,18.86
2017-07-22T03:44:18.802Z,18.78
2017-07-22T03:45:19.100Z,18.86
2017-07-22T03:46:19.241Z,18.89
2017-07-22T03:47:19.087Z,18.85
2017-07-22T03:48:19.092Z,18.88
2017-07-22T03:49:19.087Z,18.89
2017-07-22T03:50:19.089Z,18.83
2017-07-22T03:51:19.080Z,18.83
2017-07-22T03:52:19.085Z,18.81
2017-07-22T03:53:19.082Z,18.86
2017-07-22T03:54:19.184Z,18.82
2017-07-22T03:55:18.773Z,18.86
2017-07-22T03:56:19.178Z,18.88
2017-07-22T03:57:19.073Z,18.97
2017-07-22T03:58:19.089Z,18.92
2017-07-22T03:59:19.169Z,18.86
2017-07-22T04:00:19.067Z,18.81
2017-07-22T04:01:19.065Z,18.91
2017-07-22T04:02:19.066Z,18.89
2017-07-22T04:03:19.063Z,18.92
2017-07-22T04:04:18.761Z,18.89
2017-07-22T04:05:19.059Z,18.86
2017-07-22T04:06:19.059Z,18.91
2017-07-22T04:07:19.054Z,18.96
2017-07-22T04:08:19.063Z,18.89
2017-07-22T04:09:19.051Z,18.97
2017-07-22T04:10:18.748Z,18.81
2017-07-22T04:11:19.151Z,18.83
2017-07-22T04:12:19.046Z,18.83
2017-07-22T04:13:19.046Z,18.85
2017-07-22T04:14:19.053Z,18.82
2017-07-22T04:15:18.750Z,18.89
2017-07-22T04:16:19.041Z,18.88
2017-07-22T04:17:19.039Z,18.86
2017-07-22T04:18:19.036Z,18.86
2017-07-22T04:19:19.056Z,18.83
2017-07-22T04:20:19.036Z,18.89
2017-07-22T04:21:19.033Z,18.86
2017-07-22T04:22:19.033Z,18.86
2017-07-22T04:23:19.032Z,18.88
2017-07-22T04:24:19.029Z,18.92
2017-07-22T04:25:19.025Z,18.83
2017-07-22T04:26:19.023Z,18.96
2017-07-22T04:27:19.035Z,18.89
2017-07-22T04:28:18.717Z,18.89
2017-07-22T04:29:19.018Z,18.86
2017-07-22T04:30:19.014Z,18.85
2017-07-22T04:31:19.018Z,18.89
2017-07-22T04:32:19.013Z,18.91
2017-07-22T04:33:19.012Z,18.92
2017-07-22T04:34:19.217Z,18.89
2017-07-22T04:35:18.809Z,18.92
2017-07-22T04:36:19.014Z,18.94
2017-07-22T04:37:19.007Z,18.89
2017-07-22T04:38:19.004Z,18.92
2017-07-22T04:39:19.155Z,18.94
2017-07-22T04:40:19.001Z,18.94
2017-07-22T04:41:18.999Z,18.97
2017-07-22T04:42:19.003Z,18.92
2017-07-22T04:43:18.995Z,18.89
2017-07-22T04:44:18.691Z,18.96
2017-07-22T04:45:18.789Z,19.01
2017-07-22T04:46:18.991Z,18.92
2017-07-22T04:47:18.988Z,19.05
2017-07-22T04:48:18.988Z,19.04
2017-07-22T04:49:19.133Z,18.97
2017-07-22T04:50:19.083Z,19.05
2017-07-22T04:51:18.987Z,19
2017-07-22T04:52:18.982Z,19.09
2017-07-22T04:53:19.081Z,19.19
2017-07-22T04:54:19.081Z,19.26
2017-07-22T04:55:18.973Z,19.29
2017-07-22T04:56:18.973Z,19.37
2017-07-22T04:57:18.980Z,19.37
2017-07-22T04:58:18.978Z,19.41
2017-07-22T04:59:18.969Z,19.44
2017-07-22T05:00:18.963Z,19.47
2017-07-22T05:01:18.966Z,19.62
2017-07-22T05:02:19.071Z,19.7
2017-07-22T05:03:18.968Z,19.64
2017-07-22T05:04:18.759Z,19.71
2017-07-22T05:05:18.959Z,19.81
2017-07-22T05:06:19.059Z,19.78
2017-07-22T05:07:18.957Z,19.84
2017-07-22T05:08:18.954Z,19.93
2017-07-22T05:09:18.951Z,20.17
2017-07-22T05:10:18.951Z,20.75
2017-07-22T05:11:18.952Z,21.4
2017-07-22T05:12:18.947Z,21.89
2017-07-22T05:13:18.948Z,22.28
2017-07-22T05:14:18.945Z,22.67
2017-07-22T05:15:18.943Z,22.98
2017-07-22T05:16:18.940Z,23.4
2017-07-22T05:17:18.937Z,23.86
2017-07-22T05:18:18.941Z,24.36
2017-07-22T05:19:18.937Z,24.86
2017-07-22T05:20:18.937Z,25.25
2017-07-22T05:21:19.038Z,25.51
2017-07-22T05:22:18.942Z,25.66
2017-07-22T05:23:18.928Z,25.85
2017-07-22T05:24:19.034Z,26.04
2017-07-22T05:25:18.931Z,26.27
2017-07-22T05:26:19.049Z,26.56
2017-07-22T05:27:19.051Z,26.79
2017-07-22T05:28:18.928Z,27.05
2017-07-22T05:29:18.785Z,27.29
2017-07-22T05:30:18.929Z,27.58
2017-07-22T05:31:18.621Z,27.79
2017-07-22T05:32:18.624Z,27.94
2017-07-22T05:33:18.930Z,28.15
2017-07-22T05:34:18.935Z,28.25
2017-07-22T05:35:18.938Z,28.49
2017-07-22T05:36:19.031Z,28.64
2017-07-22T05:37:18.926Z,28.78
2017-07-22T05:38:18.927Z,28.74
2017-07-22T05:39:18.927Z,28.87
2017-07-22T05:40:18.933Z,29.07
2017-07-22T05:41:18.933Z,29.2
2017-07-22T05:42:19.025Z,29.39
2017-07-22T05:43:18.626Z,29.52
2017-07-22T05:44:18.932Z,29.68
2017-07-22T05:45:18.930Z,29.83
2017-07-22T05:46:18.625Z,30.03
2017-07-22T05:47:18.629Z,30.11
2017-07-22T05:48:18.633Z,30.13
2017-07-22T05:49:18.938Z,30.2
2017-07-22T05:50:18.934Z,30.29
2017-07-22T05:51:18.939Z,30.36
2017-07-22T05:52:18.935Z,30.52
2017-07-22T05:53:18.942Z,30.63
2017-07-22T05:54:18.939Z,30.7
2017-07-22T05:55:18.941Z,30.7
2017-07-22T05:56:18.942Z,30.73
2017-07-22T05:57:18.736Z,30.8
2017-07-22T05:58:18.946Z,31.02
2017-07-22T05:59:18.962Z,31.14
2017-07-22T06:00:18.969Z,31.3
2017-07-22T06:01:18.964Z,31.37
2017-07-22T06:02:18.659Z,31.51
2017-07-22T06:03:18.961Z,31.5
2017-07-22T06:04:18.966Z,31.63
2017-07-22T06:05:19.075Z,31.7
2017-07-22T06:06:18.972Z,31.81
2017-07-22T06:07:18.975Z,31.81
2017-07-22T06:08:18.978Z,31.95
2017-07-22T06:09:19.124Z,32.07
2017-07-22T06:10:18.987Z,32.08
2017-07-22T06:11:18.676Z,32.31
2017-07-22T06:12:18.987Z,32.34
2017-07-22T06:13:18.987Z,32.37
2017-07-22T06:14:18.993Z,32.44
2017-07-22T06:15:18.993Z,32.45
2017-07-22T06:16:19.005Z,32.44
2017-07-22T06:17:19.000Z,32.68
2017-07-22T06:18:19.002Z,32.85
2017-07-22T06:19:19.005Z,32.91
2017-07-22T06:20:19.012Z,32.94
2017-07-22T06:21:19.014Z,33.05
2017-07-22T06:22:18.708Z,33.31
2017-07-22T06:23:19.019Z,33.38
2017-07-22T06:24:19.023Z,33.53
2017-07-22T06:25:19.021Z,33.66
2017-07-22T06:26:19.025Z,33.84
2017-07-22T06:27:19.031Z,33.91
2017-07-22T06:28:19.034Z,34.04
2017-07-22T06:29:19.037Z,34.13
2017-07-22T06:30:19.046Z,34.16
2017-07-22T06:31:18.735Z,34.1
2017-07-22T06:32:19.048Z,34.22
2017-07-22T06:33:19.153Z,34.29
2017-07-22T06:34:18.752Z,34.4
2017-07-22T06:35:19.063Z,34.24
2017-07-22T06:36:19.065Z,34.33
2017-07-22T06:37:19.076Z,34.33
2017-07-22T06:38:19.153Z,34.33
2017-07-22T06:39:19.339Z,34.55
2017-07-22T06:40:19.220Z,34.62
2017-07-22T06:41:19.110Z,34.79
2017-07-22T06:42:19.339Z,34.94
2017-07-22T06:43:18.938Z,35
2017-07-22T06:44:19.094Z,35.16
2017-07-22T06:45:19.098Z,35.2
2017-07-22T06:46:19.107Z,35.23
2017-07-22T06:47:19.107Z,35.34
2017-07-22T06:48:18.804Z,35.5
2017-07-22T06:49:18.809Z,35.69
2017-07-22T06:50:19.121Z,35.81
2017-07-22T06:51:19.122Z,35.93
2017-07-22T06:52:18.822Z,36.06
2017-07-22T06:53:19.134Z,36.03
2017-07-22T06:54:19.150Z,35.74
2017-07-22T06:55:19.143Z,35.5
2017-07-22T06:56:19.145Z,35.35
2017-07-22T06:57:19.150Z,35.27
2017-07-22T06:58:18.846Z,35.31
2017-07-22T06:59:18.854Z,35.34
2017-07-22T07:00:19.163Z,35.27
2017-07-22T07:01:19.167Z,35.34
2017-07-22T07:02:19.172Z,35.25
2017-07-22T07:03:19.178Z,35.37
2017-07-22T07:04:19.278Z,35.69
2017-07-22T07:05:19.186Z,35.91
2017-07-22T07:06:19.186Z,36.25
2017-07-22T07:07:19.394Z,36.36
2017-07-22T07:08:18.894Z,36.44
2017-07-22T07:09:19.203Z,36.6
2017-07-22T07:10:18.901Z,36.63
2017-07-22T07:11:19.315Z,36.81
2017-07-22T07:12:19.215Z,36.82
2017-07-22T07:13:19.421Z,36.76
2017-07-22T07:14:19.221Z,36.8
2017-07-22T07:15:19.024Z,36.73
2017-07-22T07:16:19.233Z,36.54
2017-07-22T07:17:19.243Z,36.17
2017-07-22T07:18:19.242Z,36
2017-07-22T07:19:19.246Z,36.08
2017-07-22T07:20:19.247Z,35.84
2017-07-22T07:21:19.404Z,35.96
2017-07-22T07:22:19.253Z,36.22
2017-07-22T07:23:19.255Z,36.44
2017-07-22T07:24:19.263Z,36.69
2017-07-22T07:25:19.373Z,36.92
2017-07-22T07:26:19.273Z,36.92
2017-07-22T07:27:19.269Z,37.01
2017-07-22T07:28:18.969Z,37.1
2017-07-22T07:29:19.285Z,37.23
2017-07-22T07:30:19.286Z,37.48
2017-07-22T07:31:19.292Z,37.6
2017-07-22T07:32:19.294Z,37.68
2017-07-22T07:33:19.298Z,37.8
2017-07-22T07:34:19.300Z,38.04
2017-07-22T07:35:18.988Z,38.05
2017-07-22T07:36:19.302Z,37.78
2017-07-22T07:37:19.303Z,37.5
2017-07-22T07:38:19.307Z,37.31
2017-07-22T07:39:19.315Z,37.1
2017-07-22T07:40:19.327Z,36.43
2017-07-22T07:41:19.323Z,35.93
2017-07-22T07:42:19.320Z,35.74
2017-07-22T07:43:19.434Z,36.01
2017-07-22T07:44:19.329Z,36.25
2017-07-22T07:45:19.333Z,36.51
2017-07-22T07:46:19.433Z,36.66
2017-07-22T07:47:19.338Z,37.03
2017-07-22T07:48:19.337Z,37.29
2017-07-22T07:49:19.344Z,37.58
2017-07-22T07:50:19.343Z,37.82
2017-07-22T07:51:19.344Z,37.94
2017-07-22T07:52:19.348Z,38.13
2017-07-22T07:53:19.355Z,38.13
2017-07-22T07:54:19.351Z,38.31
2017-07-22T07:55:19.065Z,38.31
2017-07-22T07:56:19.061Z,38.41
2017-07-22T07:57:19.359Z,38.39
2017-07-22T07:58:19.365Z,38.51
2017-07-22T07:59:19.364Z,38.6
2017-07-22T08:00:19.371Z,38.58
2017-07-22T08:01:19.367Z,38.66
2017-07-22T08:02:19.474Z,38.66
2017-07-22T08:03:19.381Z,38.69
2017-07-22T08:04:19.382Z,38.69
2017-07-22T08:05:19.072Z,38.76
2017-07-22T08:06:19.410Z,38.72
2017-07-22T08:07:19.389Z,38.68
2017-07-22T08:08:19.388Z,38.62
2017-07-22T08:09:19.393Z,38.6
2017-07-22T08:10:19.086Z,38.62
2017-07-22T08:11:19.394Z,38.62
2017-07-22T08:12:19.396Z,38.62
2017-07-22T08:13:19.402Z,38.65
2017-07-22T08:14:19.401Z,38.75
2017-07-22T08:15:19.399Z,38.79
2017-07-22T08:16:19.102Z,38.88
2017-07-22T08:17:19.410Z,38.95
2017-07-22T08:18:19.407Z,38.77
2017-07-22T08:19:19.410Z,38.81
2017-07-22T08:20:19.412Z,38.82
2017-07-22T08:21:19.409Z,38.81
2017-07-22T08:22:19.411Z,38.96
2017-07-22T08:23:19.413Z,38.95
2017-07-22T08:24:19.424Z,39.03
2017-07-22T08:25:19.415Z,39.1
2017-07-22T08:26:19.420Z,39.19
2017-07-22T08:27:19.419Z,39.22
2017-07-22T08:28:19.426Z,39.2
2017-07-22T08:29:19.580Z,39.26
2017-07-22T08:30:19.132Z,39.23
2017-07-22T08:31:19.425Z,39.27
2017-07-22T08:32:19.433Z,39.33
2017-07-22T08:33:19.433Z,39.46
2017-07-22T08:34:19.440Z,39.49
2017-07-22T08:35:19.431Z,39.33
2017-07-22T08:36:19.436Z,39.27
2017-07-22T08:37:19.436Z,39.32
2017-07-22T08:38:19.434Z,39.45
2017-07-22T08:39:19.458Z,39.44
2017-07-22T08:40:19.440Z,39.41
2017-07-22T08:41:19.695Z,39.37
2017-07-22T08:42:19.443Z,39.03
2017-07-22T08:43:19.448Z,39.07
2017-07-22T08:44:19.447Z,39
2017-07-22T08:45:19.446Z,38.98
2017-07-22T08:46:19.449Z,38.92
2017-07-22T08:47:19.448Z,38.88
2017-07-22T08:48:19.148Z,38.63
2017-07-22T08:49:19.449Z,38.22
2017-07-22T08:50:19.449Z,37.54
2017-07-22T08:51:19.454Z,36.88
2017-07-22T08:52:19.452Z,36.25
2017-07-22T08:53:19.449Z,35.44
2017-07-22T08:54:19.449Z,34.65
2017-07-22T08:55:19.449Z,34.07
2017-07-22T08:56:19.452Z,33.54
2017-07-22T08:57:19.457Z,33.13
2017-07-22T08:58:19.248Z,32.86
2017-07-22T08:59:19.453Z,32.51
2017-07-22T09:00:19.462Z,32.08
2017-07-22T09:01:19.148Z,31.69
2017-07-22T09:02:19.560Z,31.51
2017-07-22T09:03:19.152Z,31.22
2017-07-22T09:04:19.458Z,31.2
2017-07-22T09:05:19.457Z,31.02
2017-07-22T09:06:19.460Z,30.85
2017-07-22T09:07:19.467Z,30.56
2017-07-22T09:08:19.465Z,30.29
2017-07-22T09:09:19.469Z,29.95
2017-07-22T09:10:19.256Z,29.96
2017-07-22T09:11:19.459Z,29.8
2017-07-22T09:12:19.460Z,29.62
2017-07-22T09:13:19.157Z,29.71
2017-07-22T09:14:19.617Z,29.59
2017-07-22T09:15:19.473Z,29.64
2017-07-22T09:16:19.162Z,29.52
2017-07-22T09:17:19.464Z,29.64
2017-07-22T09:18:19.470Z,29.65
2017-07-22T09:19:19.567Z,29.55
2017-07-22T09:20:19.465Z,29.61
2017-07-22T09:21:19.467Z,29.67
2017-07-22T09:22:19.163Z,29.71
2017-07-22T09:23:19.160Z,29.67
2017-07-22T09:24:19.475Z,29.71
2017-07-22T09:25:19.472Z,29.58
2017-07-22T09:26:19.478Z,29.58
2017-07-22T09:27:19.625Z,29.59
2017-07-22T09:28:19.468Z,29.5
2017-07-22T09:29:19.471Z,29.47
2017-07-22T09:30:19.163Z,29.39
2017-07-22T09:31:19.473Z,29.42
2017-07-22T09:32:19.478Z,29.4
2017-07-22T09:33:19.477Z,29.35
2017-07-22T09:34:19.485Z,29.31
2017-07-22T09:35:19.470Z,29.32
2017-07-22T09:36:19.472Z,29.35
2017-07-22T09:37:19.478Z,29.35
2017-07-22T09:38:19.475Z,29.31
2017-07-22T09:39:19.479Z,29.28
2017-07-22T09:40:19.480Z,29.3
2017-07-22T09:41:19.481Z,29.32
2017-07-22T09:42:19.475Z,29.32
2017-07-22T09:43:19.475Z,29.32
2017-07-22T09:44:19.477Z,29.25
2017-07-22T09:45:19.477Z,29.24
2017-07-22T09:46:19.474Z,29.32
2017-07-22T09:47:19.169Z,29.15
2017-07-22T09:48:19.680Z,29.16
2017-07-22T09:49:19.478Z,29.12
2017-07-22T09:50:19.476Z,29.09
2017-07-22T09:51:19.481Z,29.03
2017-07-22T09:52:19.174Z,28.93
2017-07-22T09:53:19.324Z,28.87
2017-07-22T09:54:19.481Z,28.84
2017-07-22T09:55:19.180Z,28.82
2017-07-22T09:56:19.476Z,28.87
2017-07-22T09:57:19.583Z,28.86
2017-07-22T09:58:19.483Z,28.84
2017-07-22T09:59:19.171Z,28.84
2017-07-22T10:00:19.496Z,28.83
2017-07-22T10:01:19.481Z,28.83
2017-07-22T10:02:19.480Z,28.8
2017-07-22T10:03:19.485Z,28.83
2017-07-22T10:04:19.477Z,28.7
2017-07-22T10:05:19.176Z,28.77
2017-07-22T10:06:19.483Z,28.77
2017-07-22T10:07:19.581Z,28.77
2017-07-22T10:08:19.485Z,28.86
2017-07-22T10:09:19.488Z,28.74
2017-07-22T10:10:19.478Z,28.72
2017-07-22T10:11:19.479Z,28.67
2017-07-22T10:12:19.484Z,28.56
2017-07-22T10:13:19.485Z,28.53
2017-07-22T10:14:19.590Z,28.52
2017-07-22T10:15:19.482Z,28.5
2017-07-22T10:16:19.479Z,28.5
2017-07-22T10:17:19.277Z,28.52
2017-07-22T10:18:19.491Z,28.55
2017-07-22T10:19:19.485Z,28.62
2017-07-22T10:20:19.487Z,28.56
2017-07-22T10:21:19.177Z,28.6
2017-07-22T10:22:19.181Z,28.55
2017-07-22T10:23:19.178Z,28.53
2017-07-22T10:24:19.486Z,28.5
2017-07-22T10:25:19.493Z,28.46
2017-07-22T10:26:19.489Z,28.46
2017-07-22T10:27:19.492Z,28.55
2017-07-22T10:28:19.486Z,28.49
2017-07-22T10:29:19.488Z,28.52
2017-07-22T10:30:19.492Z,28.65
2017-07-22T10:31:19.488Z,28.7
2017-07-22T10:32:19.489Z,28.7
2017-07-22T10:33:19.486Z,28.71
2017-07-22T10:34:19.491Z,28.67
2017-07-22T10:35:19.491Z,28.71
2017-07-22T10:36:19.490Z,28.53
2017-07-22T10:37:19.486Z,28.62
2017-07-22T10:38:19.495Z,28.59
2017-07-22T10:39:19.486Z,28.7
2017-07-22T10:40:19.490Z,28.59
2017-07-22T10:41:19.182Z,28.55
2017-07-22T10:42:19.493Z,28.55
2017-07-22T10:43:19.492Z,28.53
2017-07-22T10:44:19.185Z,28.5
2017-07-22T10:45:19.493Z,28.46
2017-07-22T10:46:19.491Z,28.49
2017-07-22T10:47:19.183Z,28.47
2017-07-22T10:48:19.493Z,28.53
2017-07-22T10:49:19.497Z,28.53
2017-07-22T10:50:19.497Z,28.5
2017-07-22T10:51:19.495Z,28.47
2017-07-22T10:52:19.495Z,28.47
2017-07-22T10:53:19.493Z,28.5
2017-07-22T10:54:19.191Z,28.47
2017-07-22T10:55:19.497Z,28.41
2017-07-22T10:56:19.190Z,28.4
2017-07-22T10:57:19.495Z,28.45
2017-07-22T10:58:19.495Z,28.43
2017-07-22T10:59:19.494Z,28.46
2017-07-22T11:00:19.499Z,28.45
2017-07-22T11:01:19.494Z,28.41
2017-07-22T11:02:19.496Z,28.45
2017-07-22T11:03:19.499Z,28.38
2017-07-22T11:04:19.492Z,28.4
2017-07-22T11:05:19.495Z,28.4
2017-07-22T11:06:19.502Z,28.41
2017-07-22T11:07:19.193Z,28.38
2017-07-22T11:08:19.500Z,28.35
2017-07-22T11:09:19.509Z,28.38
2017-07-22T11:10:19.496Z,28.35
2017-07-22T11:11:19.497Z,28.37
2017-07-22T11:12:19.498Z,28.35
2017-07-22T11:13:19.497Z,28.4
2017-07-22T11:14:19.501Z,28.31
2017-07-22T11:15:19.601Z,28.34
2017-07-22T11:16:19.500Z,28.34
2017-07-22T11:17:19.499Z,28.35
2017-07-22T11:18:19.497Z,28.27
2017-07-22T11:19:19.500Z,28.35
2017-07-22T11:20:19.498Z,28.37
2017-07-22T11:21:19.502Z,28.37
2017-07-22T11:22:19.497Z,28.38
2017-07-22T11:23:19.508Z,28.35
2017-07-22T11:24:19.652Z,28.33
2017-07-22T11:25:19.497Z,28.31
2017-07-22T11:26:19.507Z,28.38
2017-07-22T11:27:19.503Z,28.34
2017-07-22T11:28:19.499Z,28.23
2017-07-22T11:29:19.498Z,28.31
2017-07-22T11:30:19.503Z,28.25
2017-07-22T11:31:19.502Z,28.3
2017-07-22T11:32:19.500Z,28.25
2017-07-22T11:33:19.501Z,28.28
2017-07-22T11:34:19.505Z,28.25
2017-07-22T11:35:19.502Z,28.23
2017-07-22T11:36:19.502Z,28.2
2017-07-22T11:37:19.370Z,28.22
2017-07-22T11:38:19.499Z,28.31
2017-07-22T11:39:19.503Z,28.3
2017-07-22T11:40:19.504Z,28.34
2017-07-22T11:41:19.505Z,28.22
2017-07-22T11:42:19.502Z,28.22
2017-07-22T11:43:19.499Z,28.35
2017-07-22T11:44:19.197Z,28.25
2017-07-22T11:45:19.539Z,28.3
2017-07-22T11:46:19.601Z,28.46
2017-07-22T11:47:19.499Z,28.34
2017-07-22T11:48:19.508Z,28.25
2017-07-22T11:49:19.293Z,28.23
2017-07-22T11:50:19.506Z,28.23
2017-07-22T11:51:19.500Z,28.27
2017-07-22T11:52:19.502Z,28.23
2017-07-22T11:53:19.510Z,28.3
2017-07-22T11:54:19.503Z,28.28
2017-07-22T11:55:19.600Z,28.22
2017-07-22T11:56:19.194Z,28.15
2017-07-22T11:57:19.503Z,28.13
2017-07-22T11:58:19.504Z,28.23
2017-07-22T11:59:19.554Z,28.18
2017-07-22T12:00:19.548Z,28.13
2017-07-22T12:01:19.239Z,28.12
2017-07-22T12:02:38.755Z,28.12
2017-07-22T12:03:19.655Z,28.19
2017-07-22T12:04:19.238Z,28.22
2017-07-22T12:05:19.551Z,28.22
2017-07-22T12:06:19.550Z,28.22
2017-07-22T12:07:19.556Z,28.22
2017-07-22T12:08:19.243Z,28.22
2017-07-22T12:09:19.214Z,28.12
2017-07-22T12:10:19.503Z,28.13
2017-07-22T12:11:19.504Z,28.13
2017-07-22T12:12:19.602Z,28.15
2017-07-22T12:13:19.512Z,28.16
2017-07-22T12:14:19.608Z,28.09
2017-07-22T12:15:19.511Z,28.13
2017-07-22T12:16:19.653Z,28.15
2017-07-22T12:17:19.503Z,28.13
2017-07-22T12:18:19.506Z,28.18
2017-07-22T12:19:19.504Z,28.18
2017-07-22T12:20:19.505Z,28.08
2017-07-22T12:21:19.501Z,28.12
2017-07-22T12:22:19.504Z,28.2
2017-07-22T12:23:19.509Z,28.19
2017-07-22T12:24:19.200Z,28.25
2017-07-22T12:25:19.504Z,28.12
2017-07-22T12:26:19.509Z,28.1
2017-07-22T12:27:19.200Z,28.2
2017-07-22T12:28:19.509Z,28.22
2017-07-22T12:29:19.204Z,28.25
2017-07-22T12:30:19.506Z,28.3
2017-07-22T12:31:19.512Z,28.27
2017-07-22T12:32:19.606Z,28.33
2017-07-22T12:33:19.511Z,28.28
2017-07-22T12:34:19.505Z,28.33
2017-07-22T12:35:19.505Z,28.28
2017-07-22T12:36:19.301Z,28.3
2017-07-22T12:37:19.508Z,28.33
2017-07-22T12:38:19.661Z,28.37
2017-07-22T12:39:19.511Z,28.22
2017-07-22T12:40:19.507Z,28.25
2017-07-22T12:41:19.511Z,28.3
2017-07-22T12:42:19.505Z,28.18
2017-07-22T12:43:19.507Z,28.2
2017-07-22T12:44:19.509Z,28.2
2017-07-22T12:45:19.610Z,28.25
2017-07-22T12:46:19.508Z,28.27
2017-07-22T12:47:19.614Z,28.27
2017-07-22T12:48:19.200Z,28.16
2017-07-22T12:49:19.201Z,28.09
2017-07-22T12:50:19.505Z,28.1
2017-07-22T12:51:19.508Z,28.06
2017-07-22T12:52:19.200Z,28.16
2017-07-22T12:53:19.198Z,28.2
2017-07-22T12:54:19.509Z,28.13
2017-07-22T12:55:19.509Z,28.22
2017-07-22T12:56:19.200Z,28.13